Time;durP1;ratioP1;P1;durP2;ratioP2;P2;SDS_P1;SDS_P2;PMS_P1;PMS_P2;Temp;Humidity;BMP_temperature;BMP_pressure;BME280_temperature;BME280_humidity;BME280_pressure;Samples;Min_cycle;Max_cycle;Signal;HPM_P1;HPM_P2
2023/08/10 00:02:14;;;;;;;2.45;1.70;;;;;;;13.42;80.60;97114.34;4877896;29;20125;-77
2023/08/10 00:04:42;;;;;;;2.83;1.70;;;;;;;13.42;81.65;97112.53;4878220;29;20128;-76
2023/08/10 00:07:09;;;;;;;3.03;2.17;;;;;;;13.44;81.47;97115.78;4877928;29;20432;-76
2023/08/10 00:09:37;;;;;;;4.47;2.08;;;;;;;13.46;82.02;97116.41;4877609;29;20049;-76
2023/08/10 06:17:50;;;;;;;2.08;1.58;;;;;;;14.17;81.10;97207.44;4831022;29;20057;-78
2023/08/10 08:43:32;;;;;;;1.20;0.82;;;;;;;20.15;52.31;97248.78;5555992;23;20041;-83
2023/08/10 09:34:29;;;;;;;2.00;1.33;;;;;;;21.89;47.93;97219.91;5583194;23;20071;-80
2023/08/10 09:36:59;;;;;;;2.17;1.40;;;;;;;21.95;48.68;97212.84;4904375;29;20056;-83
2023/08/10 09:39:32;;;;;;;4.80;1.17;;;;;;;22.01;47.42;97211.88;4902412;29;20097;-81
2023/08/10 09:42:00;;;;;;;1.98;1.38;;;;;;;22.11;48.26;97211.25;4888343;29;20060;-80
2023/08/10 09:44:43;;;;;;;2.70;1.20;;;;;;;22.25;47.76;97219.75;4901845;29;20052;-78
2023/08/10 09:47:11;;;;;;;1.45;1.30;;;;;;;22.36;50.91;97216.19;4907494;29;20052;-80
2023/08/10 09:49:53;;;;;;;2.40;1.27;;;;;;;22.49;47.15;97215.88;4899030;29;20481;-79
2023/08/10 09:52:22;;;;;;;1.73;1.00;;;;;;;22.62;47.78;97212.06;4906969;29;20507;-81
2023/08/10 09:54:51;;;;;;;1.75;1.13;;;;;;;22.73;47.70;97211.16;4904947;29;20049;-84
2023/08/10 09:57:19;;;;;;;1.83;1.20;;;;;;;22.82;47.75;97208.88;4906902;29;20104;-80
2023/08/10 09:59:48;;;;;;;3.08;1.15;;;;;;;22.81;46.51;97209.97;4897682;29;20053;-81
2023/08/10 10:02:18;;;;;;;1.27;1.17;;;;;;;22.84;47.29;97214.78;4902299;29;20530;-84
2023/08/10 10:04:48;;;;;;;2.30;1.20;;;;;;;22.93;48.89;97212.50;4887312;29;20108;-78
2023/08/10 10:07:23;;;;;;;1.40;1.13;;;;;;;22.99;46.17;97217.63;4903529;29;20054;-80
2023/08/10 10:09:52;;;;;;;1.77;1.38;;;;;;;23.06;47.10;97214.03;4907156;29;20053;-80
2023/08/10 10:12:20;;;;;;;1.45;1.35;;;;;;;23.10;46.89;97207.16;4900082;29;20100;-80
2023/08/10 10:14:48;;;;;;;2.88;1.52;;;;;;;23.17;49.26;97213.09;4888225;29;20053;-77
2023/08/10 10:17:19;;;;;;;1.30;1.20;;;;;;;23.23;47.22;97207.59;4899419;29;20048;-78
2023/08/10 10:19:51;;;;;;;2.05;1.15;;;;;;;23.33;45.50;97208.75;4899927;29;20057;-82
2023/08/10 10:22:20;;;;;;;1.42;1.33;;;;;;;23.37;45.67;97196.56;4909957;29;20052;-81
2023/08/10 10:24:49;;;;;;;1.77;1.10;;;;;;;23.42;45.77;97189.44;4910221;29;20076;-83
2023/08/10 10:27:17;;;;;;;2.13;1.38;;;;;;;23.50;45.87;97188.19;4911763;29;20089;-83
2023/08/10 10:29:53;;;;;;;1.13;1.05;;;;;;;23.61;46.31;97189.09;4904933;29;20102;-81
2023/08/10 10:32:22;;;;;;;1.20;1.10;;;;;;;23.71;47.77;97191.88;4905465;29;20052;-82
2023/08/10 10:34:52;;;;;;;2.53;1.58;;;;;;;23.79;45.55;97182.63;4904846;29;20107;-79
2023/08/10 10:37:28;;;;;;;1.83;1.42;;;;;;;23.87;44.23;97184.06;4904115;29;20135;-78
2023/08/10 10:40:14;;;;;;;2.10;1.13;;;;;;;23.95;45.25;97181.72;4888787;29;20110;-80
2023/08/10 10:43:06;;;;;;;1.52;1.10;;;;;;;23.95;43.51;97175.59;4891454;29;20079;-77
2023/08/10 10:45:39;;;;;;;1.50;1.23;;;;;;;23.93;44.15;97177.72;4902317;29;20081;-79
2023/08/10 10:48:06;;;;;;;2.45;1.17;;;;;;;23.94;44.46;97174.81;4904913;29;20139;-80
2023/08/10 10:50:36;;;;;;;1.65;1.17;;;;;;;23.95;44.27;97165.75;4897923;29;20061;-78
2023/08/10 10:53:05;;;;;;;2.72;1.10;;;;;;;24.00;44.37;97170.31;4898596;29;20075;-79
2023/08/10 10:55:42;;;;;;;2.25;0.95;;;;;;;24.10;44.95;97167.75;4907152;29;20415;-85
2023/08/10 10:58:11;;;;;;;1.10;0.85;;;;;;;24.15;43.65;97169.63;4908818;29;20052;-84
2023/08/10 11:00:40;;;;;;;1.48;1.38;;;;;;;24.15;43.34;97162.44;4897271;29;20057;-81
2023/08/10 11:03:09;;;;;;;2.28;1.60;;;;;;;24.07;43.23;97168.22;4889176;29;20048;-82
2023/08/10 11:05:39;;;;;;;1.58;1.30;;;;;;;23.92;42.66;97174.25;4895028;29;20061;-81
2023/08/10 11:08:07;;;;;;;2.28;1.80;;;;;;;23.84;43.75;97164.84;4902081;29;20048;-83
2023/08/10 11:10:37;;;;;;;1.83;1.35;;;;;;;23.91;44.15;97163.84;4903085;29;20104;-81
2023/08/10 11:13:06;;;;;;;2.85;1.55;;;;;;;23.97;42.52;97160.19;4908577;29;20048;-87
2023/08/10 11:15:37;;;;;;;1.25;1.17;;;;;;;23.97;42.89;97152.19;4902932;29;20085;-84
2023/08/10 11:18:10;;;;;;;3.60;3.03;;;;;;;24.05;43.94;97154.34;4899051;29;20048;-80
2023/08/10 11:20:44;;;;;;;3.00;1.70;;;;;;;24.16;43.57;97150.72;4907934;29;20073;-79
2023/08/10 11:23:12;;;;;;;3.70;1.92;;;;;;;24.27;44.06;97152.41;4891736;29;20517;-82
2023/08/10 11:25:48;;;;;;;2.25;1.83;;;;;;;24.35;42.21;97153.78;4888758;29;20053;-82
2023/08/10 11:28:16;;;;;;;2.85;1.15;;;;;;;24.40;41.87;97151.16;4891582;29;20057;-84
2023/08/10 11:30:45;;;;;;;2.17;1.08;;;;;;;24.45;42.12;97148.53;4907615;29;20056;-80
2023/08/10 11:33:14;;;;;;;4.32;2.08;;;;;;;24.48;42.66;97141.91;4894493;29;20085;-85
2023/08/10 11:35:50;;;;;;;1.80;1.65;;;;;;;24.47;41.90;97134.94;4909977;29;20076;-84
2023/08/10 11:38:18;;;;;;;2.55;1.60;;;;;;;24.47;42.39;97134.94;4915493;29;20037;-87
2023/08/10 11:40:46;;;;;;;1.52;1.30;;;;;;;24.48;41.49;97128.56;4900462;29;20049;-84
2023/08/10 11:43:15;;;;;;;2.60;2.20;;;;;;;24.47;42.65;97129.59;4916857;29;20083;-82
2023/08/10 11:45:43;;;;;;;4.03;1.83;;;;;;;24.42;41.77;97126.88;4908918;29;20049;-81
2023/08/10 11:48:13;;;;;;;1.30;1.15;;;;;;;24.22;40.64;97125.69;4909425;29;20048;-82
2023/08/10 11:50:43;;;;;;;2.75;2.03;;;;;;;23.98;41.83;97127.13;4908957;29;20125;-85
2023/08/10 11:53:15;;;;;;;2.05;1.65;;;;;;;23.81;41.90;97128.06;4913701;29;20108;-81
2023/08/10 11:55:43;;;;;;;;;;;;;;;23.78;42.68;97119.78;4913845;29;20072;-84
2023/08/10 11:58:13;;;;;;;3.30;2.17;;;;;;;23.81;44.89;97114.75;4912459;29;19956;-81
2023/08/10 12:00:44;;;;;;;;;;;;;;;23.90;43.79;97114.25;4909217;29;20044;-80
2023/08/10 12:03:16;;;;;;;1.50;1.27;;;;;;;23.93;42.85;97119.09;4907053;29;19948;-79
2023/08/10 12:05:47;;;;;;;2.20;1.40;;;;;;;23.99;43.46;97110.09;4908560;29;20052;-80
2023/08/10 12:08:18;;;;;;;1.52;1.42;;;;;;;24.07;43.11;97117.59;4896726;29;20081;-81
2023/08/10 12:10:48;;;;;;;1.58;1.10;;;;;;;24.11;42.21;97120.56;4902323;29;20052;-80
2023/08/10 12:13:17;;;;;;;3.65;1.60;;;;;;;24.14;42.28;97117.38;4907165;29;20111;-82
2023/08/10 12:15:46;;;;;;;1.67;1.50;;;;;;;24.13;43.00;97108.59;4906327;29;20060;-83
2023/08/10 12:18:15;;;;;;;2.00;1.00;;;;;;;24.13;42.04;97111.25;4894851;29;20527;-80
2023/08/10 12:20:44;;;;;;;4.72;1.70;;;;;;;24.11;42.22;97115.22;4888266;29;20101;-80
2023/08/10 12:23:17;;;;;;;2.53;1.48;;;;;;;24.10;42.18;97103.78;4886392;29;20523;-80
2023/08/10 12:25:46;;;;;;;1.90;1.15;;;;;;;24.11;42.43;97108.03;4887724;29;20053;-81
2023/08/10 12:28:15;;;;;;;2.70;1.50;;;;;;;24.14;41.99;97115.53;4897969;29;20057;-81
2023/08/10 12:30:44;;;;;;;1.77;1.17;;;;;;;24.13;41.81;97105.13;4909249;29;20044;-80
2023/08/10 12:33:13;;;;;;;1.50;1.35;;;;;;;24.12;41.15;97112.31;4894746;29;20520;-80
2023/08/10 12:35:41;;;;;;;1.27;1.05;;;;;;;24.14;40.77;97102.22;4895056;29;20057;-81
2023/08/10 12:38:10;;;;;;;2.08;1.00;;;;;;;24.17;41.09;97100.88;4900782;29;20040;-80
2023/08/10 12:40:40;;;;;;;1.20;1.20;;;;;;;24.21;45.13;97105.44;4890587;29;20056;-81
2023/08/10 12:43:08;;;;;;;0.90;0.90;;;;;;;24.27;42.58;97103.63;4905957;29;20056;-81
2023/08/10 12:45:36;;;;;;;1.40;1.30;;;;;;;24.31;41.88;97103.91;4903716;29;20427;-80
2023/08/10 12:48:04;;;;;;;1.40;1.30;;;;;;;24.32;41.07;97105.53;4890065;29;20060;-81
2023/08/10 12:50:32;;;;;;;2.25;1.13;;;;;;;24.31;40.68;97098.56;4900965;29;20057;-79
2023/08/10 12:53:00;;;;;;;1.95;1.20;;;;;;;24.31;40.80;97103.91;4911194;29;20418;-81
2023/08/10 12:55:29;;;;;;;1.17;1.08;;;;;;;24.32;40.94;97100.19;4904846;29;20041;-81
2023/08/10 12:58:00;;;;;;;2.40;1.23;;;;;;;24.34;42.79;97098.06;4890665;29;20176;-81
2023/08/10 13:00:28;;;;;;;0.82;0.82;;;;;;;24.37;40.53;97092.22;4892457;29;20109;-84
2023/08/10 13:02:56;;;;;;;1.50;1.20;;;;;;;24.37;41.15;97102.88;4897805;29;20053;-82
2023/08/10 13:05:25;;;;;;;2.33;1.30;;;;;;;24.36;41.35;97090.59;4892694;29;20085;-82
2023/08/10 13:07:53;;;;;;;1.30;1.13;;;;;;;24.37;41.60;97092.22;4889675;29;20056;-83
2023/08/10 13:10:22;;;;;;;2.38;1.08;;;;;;;24.39;41.52;97096.22;4890963;29;20531;-83
2023/08/10 13:12:51;;;;;;;1.10;1.00;;;;;;;24.41;41.89;97098.63;4890989;29;20077;-85
2023/08/10 13:15:21;;;;;;;0.98;0.93;;;;;;;24.44;41.63;97100.78;4890926;29;20476;-83
2023/08/10 13:17:49;;;;;;;2.30;1.33;;;;;;;24.47;41.67;97092.28;4897797;29;20406;-81
2023/08/10 13:20:17;;;;;;;1.80;1.00;;;;;;;24.49;40.74;97092.03;4909169;29;20063;-81
2023/08/10 13:22:46;;;;;;;1.35;1.20;;;;;;;24.45;41.40;97097.06;4908766;29;20057;-85
2023/08/10 13:25:15;;;;;;;1.08;1.02;;;;;;;24.44;40.84;97095.44;4895162;29;20518;-83
2023/08/10 13:27:42;;;;;;;1.45;1.35;;;;;;;24.44;41.96;97098.91;4895962;29;20112;-83
2023/08/10 13:30:11;;;;;;;1.60;1.42;;;;;;;24.42;41.19;97100.22;4907951;29;20531;-84
2023/08/10 13:32:41;;;;;;;2.15;0.80;;;;;;;24.38;40.01;97094.63;4890477;29;20496;-83
2023/08/10 13:35:09;;;;;;;2.40;1.08;;;;;;;24.37;41.24;97097.53;4889788;29;20051;-83
2023/08/10 13:37:38;;;;;;;1.77;1.30;;;;;;;24.40;41.04;97091.69;4902253;29;20087;-81
2023/08/10 13:40:08;;;;;;;1.45;1.20;;;;;;;24.40;43.55;97097.84;4905252;29;20053;-82
2023/08/10 13:42:36;;;;;;;1.75;1.35;;;;;;;24.40;44.82;97092.50;4897900;29;20049;-83
2023/08/10 13:45:05;;;;;;;1.50;1.40;;;;;;;24.34;43.18;97082.88;4902830;29;20048;-79
2023/08/10 13:47:33;;;;;;;1.65;1.00;;;;;;;24.35;42.59;97078.34;4899253;29;20498;-78
2023/08/10 13:50:02;;;;;;;1.88;1.20;;;;;;;24.40;43.02;97087.16;4900844;29;20045;-80
2023/08/10 13:52:30;;;;;;;1.55;1.45;;;;;;;24.40;42.14;97083.69;4901464;29;20048;-78
2023/08/10 13:54:58;;;;;;;1.35;1.20;;;;;;;24.37;43.01;97090.34;4904817;29;20498;-78
2023/08/10 13:57:25;;;;;;;2.08;1.50;;;;;;;24.34;44.10;97088.19;4903321;29;20053;-79
2023/08/10 13:59:53;;;;;;;1.75;1.58;;;;;;;24.34;45.89;97092.75;4896364;29;20056;-78
2023/08/10 14:02:21;;;;;;;1.85;1.50;;;;;;;24.32;44.94;97089.53;4887120;29;20061;-78
2023/08/10 14:04:48;;;;;;;1.42;1.33;;;;;;;24.26;46.06;97092.13;4898524;29;20059;-80
2023/08/10 14:07:18;;;;;;;1.40;1.15;;;;;;;24.23;43.82;97090.00;4906215;29;20060;-81
2023/08/10 14:09:45;;;;;;;2.15;1.35;;;;;;;24.23;43.04;97082.00;4889001;29;20396;-78
2023/08/10 14:12:13;;;;;;;1.70;1.42;;;;;;;24.21;42.87;97073.47;4885672;29;20068;-78
2023/08/10 14:14:41;;;;;;;2.20;1.52;;;;;;;24.21;42.74;97081.47;4900915;29;20056;-78
2023/08/10 14:17:09;;;;;;;2.00;1.30;;;;;;;24.20;45.46;97079.84;4894416;29;20041;-79
2023/08/10 14:19:36;;;;;;;2.03;1.60;;;;;;;24.19;46.91;97080.91;4888521;29;20057;-78
2023/08/10 14:22:04;;;;;;;1.73;1.63;;;;;;;24.14;43.09;97088.06;4891714;29;20060;-77
2023/08/10 14:24:34;;;;;;;1.20;1.10;;;;;;;24.09;43.37;97085.38;4900336;29;20087;-81
2023/08/10 14:27:02;;;;;;;1.27;1.17;;;;;;;24.07;43.15;97088.28;4903383;29;20057;-80
2023/08/10 14:29:30;;;;;;;1.67;1.58;;;;;;;24.10;43.82;97089.66;4903120;29;20056;-78
2023/08/10 14:31:57;;;;;;;1.73;1.40;;;;;;;24.08;42.92;97084.56;4893908;29;20101;-78
2023/08/10 14:34:25;;;;;;;1.42;1.10;;;;;;;24.10;42.10;97087.00;4902626;29;20104;-78
2023/08/10 14:36:54;;;;;;;1.73;1.42;;;;;;;24.08;43.58;97089.91;4903736;29;20055;-82
2023/08/10 14:39:22;;;;;;;1.52;1.42;;;;;;;24.06;42.00;97089.34;4892812;29;20086;-78
2023/08/10 14:41:51;;;;;;;3.35;1.50;;;;;;;24.00;42.55;97087.72;4919003;29;20064;-81
2023/08/10 14:44:19;;;;;;;2.42;1.75;;;;;;;23.97;41.63;97081.03;4924821;29;20084;-78
2023/08/10 14:46:47;;;;;;;1.98;1.45;;;;;;;23.96;41.26;97087.41;4923781;29;20052;-79
2023/08/10 14:49:14;;;;;;;1.80;1.40;;;;;;;23.92;45.08;97080.19;4923900;29;20134;-78
2023/08/10 14:51:44;;;;;;;2.03;1.73;;;;;;;23.87;45.22;97077.50;4922562;29;20071;-78
2023/08/10 14:54:12;;;;;;;1.30;1.20;;;;;;;23.82;44.25;97076.38;4923544;29;20103;-79
2023/08/10 14:56:39;;;;;;;1.50;1.40;;;;;;;23.76;45.67;97077.41;4923224;29;20055;-79
2023/08/10 14:59:09;;;;;;;1.30;1.13;;;;;;;23.72;41.38;97081.59;4904550;29;20085;-80
2023/08/10 15:01:36;;;;;;;2.25;1.50;;;;;;;23.68;41.02;97069.88;4907130;29;20052;-80
2023/08/10 15:04:08;;;;;;;1.70;1.17;;;;;;;23.68;40.61;97074.38;4905838;29;20055;-80
2023/08/10 15:06:37;;;;;;;3.38;1.52;;;;;;;23.68;41.46;97072.53;4906453;29;20080;-79
2023/08/10 15:09:05;;;;;;;3.38;1.50;;;;;;;23.71;41.99;97074.69;4905991;29;20052;-78
2023/08/10 15:11:34;;;;;;;3.00;1.38;;;;;;;23.75;41.20;97067.81;4904565;29;20121;-80
2023/08/10 15:14:02;;;;;;;1.70;1.42;;;;;;;23.77;40.51;97078.22;4902872;29;20638;-79
2023/08/10 15:16:33;;;;;;;2.38;1.83;;;;;;;23.76;40.30;97077.41;4902433;29;20081;-79
2023/08/10 15:19:01;;;;;;;1.45;1.13;;;;;;;23.75;41.03;97075.81;4902863;29;20091;-77
2023/08/10 15:21:29;;;;;;;2.17;1.40;;;;;;;23.75;40.28;97065.16;4901679;29;20426;-77
2023/08/10 15:23:56;;;;;;;1.73;1.63;;;;;;;23.76;40.40;97077.41;4893994;29;20049;-79
2023/08/10 15:26:24;;;;;;;2.75;1.52;;;;;;;23.74;43.22;97074.16;4905766;29;20107;-78
2023/08/10 15:28:52;;;;;;;2.13;1.30;;;;;;;23.72;44.11;97081.59;4907017;29;20053;-77
2023/08/10 15:31:21;;;;;;;1.58;1.48;;;;;;;23.66;41.08;97074.66;4889333;29;20104;-78
2023/08/10 16:06:15;;;;;;;1.77;1.42;;;;;;;23.61;41.27;97069.25;4963146;23;20051;-78
2023/08/10 16:09:01;;;;;;;1.95;1.42;;;;;;;23.59;41.20;97061.53;4924521;29;20044;-80
2023/08/10 16:11:51;;;;;;;2.08;1.40;;;;;;;23.60;41.64;97057.00;5444892;23;20423;-79
2023/08/10 18:13:43;;;;;;;3.63;1.70;;;;;;;23.03;45.65;97080.44;5411974;23;20083;-74
2023/08/10 18:16:12;;;;;;;2.53;1.98;;;;;;;23.01;46.59;97081.75;4892466;29;20558;-72
2023/08/10 18:18:40;;;;;;;3.60;1.98;;;;;;;23.00;46.86;97088.09;4898050;29;20056;-71
2023/08/10 18:21:09;;;;;;;7.13;4.03;;;;;;;22.98;47.24;97084.84;4893879;29;20045;-71
2023/08/10 18:23:38;;;;;;;3.70;2.60;;;;;;;22.95;47.34;97080.03;4897658;29;20518;-71
2023/08/10 18:26:08;;;;;;;4.65;2.30;;;;;;;22.92;48.20;97088.53;4897479;29;20104;-71
2023/08/10 18:28:35;;;;;;;3.72;1.65;;;;;;;22.86;49.23;97089.53;4897740;29;20061;-71
2023/08/10 18:31:08;;;;;;;3.58;1.90;;;;;;;22.78;49.67;97104.03;4896264;29;20117;-70
2023/08/10 18:33:35;;;;;;;;;;;;;;;22.68;49.22;97095.97;4898602;29;20467;-72
2023/08/10 18:36:03;;;;;;;3.47;1.73;;;;;;;22.55;49.96;97102.44;4896104;29;19924;-71
2023/08/10 18:38:30;;;;;;;2.20;1.63;;;;;;;22.43;50.65;97099.88;4879137;29;20049;-70
2023/08/10 18:40:58;;;;;;;3.03;2.10;;;;;;;22.34;50.78;97104.00;4879673;29;20049;-71
2023/08/10 18:43:26;;;;;;;2.05;1.63;;;;;;;22.23;50.83;97104.91;4885144;29;20061;-71
2023/08/10 18:45:53;;;;;;;3.70;1.60;;;;;;;22.11;50.95;97111.09;4880290;29;20478;-71
2023/08/10 18:48:22;;;;;;;2.00;1.80;;;;;;;21.99;51.25;97118.34;4878578;29;20057;-71
2023/08/10 18:50:50;;;;;;;3.65;2.42;;;;;;;21.88;51.66;97111.25;4882825;29;20049;-70
2023/08/10 18:53:17;;;;;;;3.00;1.65;;;;;;;21.77;52.06;97119.06;4884716;29;20081;-70
2023/08/10 18:55:49;;;;;;;4.60;1.42;;;;;;;21.65;52.22;97130.81;4878337;29;20056;-72
2023/08/10 18:58:18;;;;;;;5.35;2.00;;;;;;;21.51;52.54;97128.44;4885015;29;20112;-72
2023/08/10 19:00:46;;;;;;;2.75;1.73;;;;;;;21.39;52.64;97125.81;4886946;29;20108;-71
2023/08/10 19:03:14;;;;;;;3.80;2.05;;;;;;;21.29;52.95;97125.63;4878488;29;20475;-69
2023/08/10 19:05:44;;;;;;;3.50;2.40;;;;;;;21.23;53.44;97129.25;4879210;29;21599;-71
2023/08/10 19:08:11;;;;;;;2.40;1.80;;;;;;;21.17;53.47;97133.63;4878177;29;20567;-71
2023/08/10 19:10:39;;;;;;;1.80;1.65;;;;;;;21.10;53.54;97137.44;4878008;29;20057;-71
2023/08/10 19:13:06;;;;;;;2.83;2.20;;;;;;;21.02;53.79;97135.19;4879810;29;20499;-71
2023/08/10 19:15:34;;;;;;;3.80;2.00;;;;;;;20.94;54.04;97145.09;4878238;29;20535;-71
2023/08/10 19:18:02;;;;;;;2.53;1.73;;;;;;;20.86;54.63;97145.50;4878238;29;20113;-70
2023/08/10 19:20:31;;;;;;;4.70;2.35;;;;;;;20.80;55.00;97149.06;4886489;29;20426;-72
2023/08/10 19:23:00;;;;;;;4.22;2.83;;;;;;;20.72;55.23;97155.53;4896605;29;20081;-72
2023/08/10 19:25:28;;;;;;;3.70;2.00;;;;;;;20.66;55.71;97153.84;4906574;29;20048;-71
2023/08/10 19:27:55;;;;;;;4.28;2.50;;;;;;;20.60;55.89;97153.94;4890866;29;20053;-70
2023/08/10 19:30:23;;;;;;;2.67;2.33;;;;;;;20.54;55.90;97161.75;4882422;29;20049;-70
2023/08/10 19:32:51;;;;;;;2.72;2.17;;;;;;;20.47;55.85;97155.75;4915335;29;20052;-71
2023/08/10 19:35:18;;;;;;;2.80;2.05;;;;;;;20.41;56.76;97159.34;4903201;29;20542;-71
2023/08/10 19:37:46;;;;;;;4.50;2.40;;;;;;;20.34;56.39;97154.16;4893453;29;20056;-71
2023/08/10 19:40:16;;;;;;;2.47;2.15;;;;;;;20.31;58.69;97167.03;4906199;29;20053;-71
2023/08/10 19:42:43;;;;;;;2.55;2.35;;;;;;;20.26;57.52;97159.78;4907435;29;20057;-71
2023/08/10 19:45:11;;;;;;;3.33;2.28;;;;;;;20.20;57.34;97160.69;4891835;29;20051;-71
2023/08/10 19:47:39;;;;;;;2.50;2.30;;;;;;;20.15;57.61;97171.97;4888148;29;20053;-70
2023/08/10 23:58:15;;;;;;;2.88;2.42;;;;;;;16.07;67.32;97216.63;4787045;23;20108;-77
